createdAt,value
2023-01-29T00:00:51.551Z,21.11
2023-01-29T00:01:55.711Z,21.08
2023-01-29T00:03:00.109Z,21.1
2023-01-29T00:04:04.368Z,21.09
2023-01-29T00:05:25.739Z,21.09
2023-01-29T00:06:31.850Z,21.08
2023-01-29T00:07:35.964Z,21.05
2023-01-29T00:08:40.080Z,21.04
2023-01-29T00:09:44.214Z,21.06
2023-01-29T00:10:48.649Z,21.05
2023-01-29T00:11:52.758Z,21.04
2023-01-29T00:12:56.878Z,21.07
2023-01-29T00:14:01.011Z,21.06
2023-01-29T00:15:05.124Z,21.03
2023-01-29T00:16:09.256Z,21.03
2023-01-29T00:17:13.462Z,21.02
2023-01-29T00:18:17.801Z,21.01
2023-01-29T00:19:21.919Z,21.02
2023-01-29T00:20:26.070Z,21.01
2023-01-29T00:21:30.225Z,21.01
2023-01-29T00:22:34.503Z,20.99
2023-01-29T00:23:38.711Z,20.99
2023-01-29T00:24:42.818Z,20.95
2023-01-29T00:25:46.970Z,20.94
2023-01-29T00:26:51.133Z,20.95
2023-01-29T00:27:55.308Z,20.94
2023-01-29T00:28:59.407Z,20.93
2023-01-29T00:30:03.588Z,20.93
2023-01-29T00:31:07.905Z,20.92
2023-01-29T00:32:12.422Z,20.91
2023-01-29T00:33:16.852Z,20.92
2023-01-29T00:34:20.994Z,20.89
2023-01-29T00:35:25.121Z,20.88
2023-01-29T00:36:29.299Z,20.89
2023-01-29T00:37:33.458Z,20.89
2023-01-29T00:38:37.585Z,20.9
2023-01-29T00:39:47.992Z,20.89
2023-01-29T00:40:52.238Z,20.88
2023-01-29T00:41:56.361Z,20.89
2023-01-29T00:43:00.529Z,20.88
2023-01-29T00:44:04.661Z,20.88
2023-01-29T00:45:08.807Z,20.84
2023-01-29T00:46:12.976Z,20.82
2023-01-29T00:47:17.281Z,20.84
2023-01-29T00:48:21.415Z,20.83
2023-01-29T00:49:25.562Z,20.84
2023-01-29T00:50:30.028Z,20.82
2023-01-29T00:51:34.179Z,20.83
2023-01-29T00:52:38.305Z,20.82
2023-01-29T00:53:42.467Z,20.81
2023-01-29T00:54:46.607Z,20.82
2023-01-29T00:55:50.750Z,20.81
2023-01-29T00:56:54.902Z,20.8
2023-01-29T00:57:59.026Z,20.79
2023-01-29T00:59:03.186Z,20.78
2023-01-29T01:00:07.325Z,20.78
2023-01-29T01:01:11.517Z,20.77
2023-01-29T01:02:15.821Z,20.75
2023-01-29T01:03:20.134Z,20.76
2023-01-29T01:04:24.262Z,20.75
2023-01-29T01:05:28.400Z,20.75
2023-01-29T01:06:32.555Z,20.77
2023-01-29T01:07:36.673Z,20.77
2023-01-29T01:08:40.790Z,20.77
2023-01-29T01:09:44.906Z,20.74
2023-01-29T01:10:49.040Z,20.75
2023-01-29T01:11:53.184Z,20.77
2023-01-29T01:12:57.311Z,20.77
2023-01-29T01:14:01.436Z,20.77
2023-01-29T01:15:05.623Z,20.74
2023-01-29T01:16:09.800Z,20.75
2023-01-29T01:17:14.093Z,20.73
2023-01-29T01:18:18.239Z,20.74
2023-01-29T01:19:22.353Z,20.74
2023-01-29T01:20:26.517Z,20.73
2023-01-29T01:21:30.691Z,20.73
2023-01-29T01:22:34.915Z,20.73
2023-01-29T01:23:39.062Z,20.73
2023-01-29T01:24:43.176Z,20.72
2023-01-29T01:25:47.492Z,20.72
2023-01-29T01:26:51.610Z,20.7
2023-01-29T01:27:55.831Z,20.71
2023-01-29T01:28:59.935Z,20.71
2023-01-29T01:30:04.044Z,20.68
2023-01-29T01:31:08.332Z,20.7
2023-01-29T01:32:12.949Z,20.69
2023-01-29T01:33:17.094Z,20.69
2023-01-29T01:34:21.275Z,20.69
2023-01-29T01:35:25.442Z,20.69
2023-01-29T01:36:29.610Z,20.69
2023-01-29T01:37:33.771Z,20.68
2023-01-29T01:38:37.917Z,20.67
2023-01-29T01:39:42.034Z,20.67
2023-01-29T01:40:46.238Z,20.63
2023-01-29T01:41:50.401Z,20.66
2023-01-29T01:42:54.533Z,20.63
2023-01-29T01:43:58.736Z,20.65
2023-01-29T01:45:02.857Z,20.62
2023-01-29T01:46:07.050Z,20.61
2023-01-29T01:47:11.299Z,20.64
2023-01-29T01:48:15.424Z,20.63
2023-01-29T01:49:19.586Z,20.61
2023-01-29T01:50:23.702Z,20.62
2023-01-29T01:51:27.834Z,20.63
2023-01-29T01:52:31.980Z,20.62
2023-01-29T01:53:36.105Z,20.62
2023-01-29T01:54:40.236Z,20.6
2023-01-29T01:55:44.340Z,20.61
2023-01-29T01:56:48.450Z,20.61
2023-01-29T01:57:52.937Z,20.61
2023-01-29T01:58:57.680Z,20.62
2023-01-29T02:00:01.828Z,20.62
2023-01-29T02:01:06.007Z,20.6
2023-01-29T02:02:10.313Z,20.57
2023-01-29T02:03:14.598Z,20.58
2023-01-29T02:04:18.720Z,20.58
2023-01-29T02:05:22.867Z,20.57
2023-01-29T02:06:26.991Z,20.54
2023-01-29T02:07:31.103Z,20.55
2023-01-29T02:08:35.238Z,20.57
2023-01-29T02:09:39.352Z,20.53
2023-01-29T02:10:43.485Z,20.55
2023-01-29T02:11:47.822Z,20.53
2023-01-29T02:12:51.937Z,20.54
2023-01-29T02:13:56.047Z,20.53
2023-01-29T02:15:00.169Z,20.52
2023-01-29T02:16:04.327Z,20.51
2023-01-29T02:17:08.535Z,20.5
2023-01-29T02:18:12.825Z,20.46
2023-01-29T02:19:16.980Z,20.45
2023-01-29T02:20:21.084Z,20.48
2023-01-29T02:21:25.282Z,20.43
2023-01-29T02:22:29.433Z,20.44
2023-01-29T02:23:33.626Z,20.46
2023-01-29T02:24:37.870Z,20.44
2023-01-29T02:25:42.410Z,20.45
2023-01-29T02:26:46.593Z,20.45
2023-01-29T02:27:50.727Z,20.44
2023-01-29T02:28:54.856Z,20.4
2023-01-29T02:29:59.062Z,20.4
2023-01-29T02:31:03.215Z,20.42
2023-01-29T02:32:07.548Z,20.43
2023-01-29T02:33:11.679Z,20.39
2023-01-29T02:34:15.812Z,20.41
2023-01-29T02:35:19.923Z,20.41
2023-01-29T02:36:24.039Z,20.39
2023-01-29T02:37:28.156Z,20.39
2023-01-29T02:38:32.283Z,20.39
2023-01-29T02:39:36.476Z,20.36
2023-01-29T02:40:40.611Z,20.35
2023-01-29T02:41:44.923Z,20.38
2023-01-29T02:42:49.536Z,20.37
2023-01-29T02:43:53.663Z,20.37
2023-01-29T02:44:57.783Z,20.34
2023-01-29T02:46:01.992Z,20.33
2023-01-29T02:47:06.328Z,20.35
2023-01-29T02:48:10.472Z,20.34
2023-01-29T02:49:14.587Z,20.34
2023-01-29T02:50:19.047Z,20.34
2023-01-29T02:51:23.263Z,20.34
2023-01-29T02:52:27.384Z,20.34
2023-01-29T02:53:31.517Z,20.32
2023-01-29T02:54:35.641Z,20.33
2023-01-29T02:55:39.758Z,20.32
2023-01-29T02:56:43.876Z,20.3
2023-01-29T02:57:47.987Z,20.3
2023-01-29T02:58:52.117Z,20.31
2023-01-29T02:59:56.233Z,20.28
2023-01-29T03:01:00.369Z,20.3
2023-01-29T03:02:04.604Z,20.29
2023-01-29T03:03:08.807Z,20.28
2023-01-29T03:04:12.968Z,20.25
2023-01-29T03:05:17.091Z,20.28
2023-01-29T03:06:21.273Z,20.26
2023-01-29T03:07:25.421Z,20.26
2023-01-29T03:08:29.548Z,20.25
2023-01-29T03:09:33.833Z,20.29
2023-01-29T03:10:37.998Z,20.31
2023-01-29T03:11:42.492Z,20.32
2023-01-29T03:12:46.603Z,20.34
2023-01-29T03:13:50.758Z,20.36
2023-01-29T03:14:54.877Z,20.36
2023-01-29T03:15:59.083Z,20.4
2023-01-29T03:17:03.186Z,20.46
2023-01-29T03:18:07.317Z,20.48
2023-01-29T03:19:11.472Z,20.54
2023-01-29T03:20:16.202Z,20.54
2023-01-29T03:21:21.556Z,20.6
2023-01-29T03:22:25.689Z,20.61
2023-01-29T03:23:29.802Z,20.64
2023-01-29T03:24:33.990Z,20.65
2023-01-29T03:25:38.116Z,20.7
2023-01-29T03:26:42.229Z,20.72
2023-01-29T03:27:46.343Z,20.74
2023-01-29T03:28:50.495Z,20.75
2023-01-29T03:29:54.659Z,20.8
2023-01-29T03:30:58.843Z,20.83
2023-01-29T03:32:03.178Z,20.86
2023-01-29T03:33:07.535Z,20.87
2023-01-29T03:34:11.643Z,20.91
2023-01-29T03:35:15.813Z,20.93
2023-01-29T03:36:19.938Z,20.96
2023-01-29T03:37:24.073Z,20.97
2023-01-29T03:38:28.184Z,21.01
2023-01-29T03:39:32.300Z,21.03
2023-01-29T03:40:36.429Z,21.06
2023-01-29T03:41:40.540Z,21.08
2023-01-29T03:42:44.752Z,21.07
2023-01-29T03:43:48.915Z,21.1
2023-01-29T03:44:53.042Z,21.07
2023-01-29T03:45:57.228Z,21.06
2023-01-29T03:47:01.585Z,21.05
2023-01-29T03:48:05.751Z,21.05
2023-01-29T03:49:09.865Z,21.04
2023-01-29T03:50:14.236Z,21.03
2023-01-29T03:51:19.460Z,21.02
2023-01-29T03:52:23.570Z,21.01
2023-01-29T03:53:27.811Z,20.97
2023-01-29T03:54:32.151Z,20.94
2023-01-29T03:55:36.317Z,20.96
2023-01-29T03:56:40.542Z,20.9
2023-01-29T03:57:44.652Z,20.91
2023-01-29T03:58:48.840Z,20.91
2023-01-29T03:59:52.942Z,20.9
2023-01-29T04:00:57.104Z,20.85
2023-01-29T04:02:01.212Z,20.87
2023-01-29T04:03:05.333Z,20.82
2023-01-29T04:04:09.509Z,20.82
2023-01-29T04:05:13.798Z,20.82
2023-01-29T04:06:17.926Z,20.83
2023-01-29T04:07:22.146Z,20.83
2023-01-29T04:08:26.271Z,20.84
2023-01-29T04:09:30.412Z,20.82
2023-01-29T04:10:34.542Z,20.85
2023-01-29T04:11:38.672Z,20.87
2023-01-29T04:12:42.824Z,20.89
2023-01-29T04:13:47.333Z,20.9
2023-01-29T04:14:51.545Z,20.91
2023-01-29T04:15:55.677Z,20.95
2023-01-29T04:16:59.818Z,20.97
2023-01-29T04:18:03.937Z,20.98
2023-01-29T04:19:08.128Z,21.01
2023-01-29T04:20:12.267Z,21.04
2023-01-29T04:21:17.121Z,21.07
2023-01-29T04:22:21.279Z,21.08
2023-01-29T04:23:25.428Z,21.1
2023-01-29T04:24:29.642Z,21.13
2023-01-29T04:25:33.941Z,21.16
2023-01-29T04:26:38.093Z,21.2
2023-01-29T04:27:42.216Z,21.23
2023-01-29T04:28:46.365Z,21.24
2023-01-29T04:29:50.520Z,21.25
2023-01-29T04:30:54.817Z,21.23
2023-01-29T04:31:59.293Z,21.21
2023-01-29T04:33:03.822Z,21.2
2023-01-29T04:34:07.928Z,21.21
2023-01-29T04:35:12.071Z,21.19
2023-01-29T04:36:16.175Z,21.18
2023-01-29T04:37:20.300Z,21.16
2023-01-29T04:38:24.434Z,21.13
2023-01-29T04:39:28.542Z,21.13
2023-01-29T04:40:32.661Z,21.13
2023-01-29T04:41:36.797Z,21.12
2023-01-29T04:42:40.915Z,21.1
2023-01-29T04:43:45.068Z,21.1
2023-01-29T04:44:49.196Z,21.1
2023-01-29T04:45:53.316Z,21.1
2023-01-29T04:46:57.511Z,21.08
2023-01-29T04:48:01.629Z,21.11
2023-01-29T04:49:05.781Z,21.12
2023-01-29T04:50:09.924Z,21.14
2023-01-29T04:51:14.059Z,21.17
2023-01-29T04:52:18.198Z,21.19
2023-01-29T04:53:22.343Z,21.24
2023-01-29T04:54:26.615Z,21.26
2023-01-29T04:55:30.752Z,21.28
2023-01-29T04:56:34.854Z,21.31
2023-01-29T04:57:39.062Z,21.3
2023-01-29T04:58:43.170Z,21.32
2023-01-29T04:59:47.268Z,21.34
2023-01-29T05:00:51.354Z,21.34
2023-01-29T05:01:55.497Z,21.33
2023-01-29T05:02:59.835Z,21.33
2023-01-29T05:04:04.170Z,21.3
2023-01-29T05:05:08.338Z,21.3
2023-01-29T05:06:12.457Z,21.28
2023-01-29T05:07:16.640Z,21.01
2023-01-29T05:08:20.728Z,21.23
2023-01-29T05:09:24.894Z,21.22
2023-01-29T05:10:29.514Z,21.21
2023-01-29T05:11:36.219Z,21.21
2023-01-29T05:12:40.313Z,21.22
2023-01-29T05:13:44.403Z,21.24
2023-01-29T05:14:48.528Z,21.25
2023-01-29T05:15:52.653Z,21.23
2023-01-29T05:16:56.839Z,21.28
2023-01-29T05:18:01.017Z,21.29
2023-01-29T05:19:05.160Z,21.34
2023-01-29T05:20:09.321Z,21.37
2023-01-29T05:21:13.436Z,21.38
2023-01-29T05:22:17.573Z,21.4
2023-01-29T05:23:21.674Z,21.44
2023-01-29T05:24:25.846Z,21.49
2023-01-29T05:25:30.167Z,21.49
2023-01-29T05:26:34.277Z,21.51
2023-01-29T05:27:38.694Z,21.53
2023-01-29T05:28:42.817Z,21.58
2023-01-29T05:29:46.912Z,21.58
2023-01-29T05:30:51.087Z,21.61
2023-01-29T05:31:55.334Z,21.63
2023-01-29T05:32:59.661Z,21.67
2023-01-29T05:34:03.841Z,21.66
2023-01-29T05:35:07.944Z,21.71
2023-01-29T05:36:12.098Z,21.68
2023-01-29T05:37:16.214Z,21.73
2023-01-29T05:38:20.339Z,21.73
2023-01-29T05:39:24.477Z,21.77
2023-01-29T05:40:28.605Z,21.78
2023-01-29T05:41:32.774Z,21.83
2023-01-29T05:42:36.912Z,21.87
2023-01-29T05:43:41.011Z,21.87
2023-01-29T05:44:45.170Z,21.88
2023-01-29T05:45:49.366Z,21.92
2023-01-29T05:46:53.567Z,21.91
2023-01-29T05:47:57.828Z,21.9
2023-01-29T05:49:01.982Z,21.94
2023-01-29T05:50:06.100Z,21.93
2023-01-29T05:51:14.420Z,21.95
2023-01-29T05:52:18.564Z,21.99
2023-01-29T05:53:22.709Z,21.98
2023-01-29T05:54:26.834Z,22.01
2023-01-29T05:55:30.969Z,22.02
2023-01-29T05:56:35.085Z,22.06
2023-01-29T05:57:39.272Z,22.04
2023-01-29T05:58:43.417Z,22.09
2023-01-29T05:59:47.551Z,22.1
2023-01-29T06:00:51.709Z,22.08
2023-01-29T06:01:55.962Z,22.12
2023-01-29T06:03:00.322Z,22.14
2023-01-29T06:04:04.713Z,22.14
2023-01-29T06:05:08.861Z,22.14
2023-01-29T06:06:13.015Z,22.11
2023-01-29T06:07:17.151Z,22.08
2023-01-29T06:08:21.316Z,22.07
2023-01-29T06:09:25.528Z,22.06
2023-01-29T06:10:29.653Z,22.06
2023-01-29T06:11:33.794Z,22.02
2023-01-29T06:12:37.924Z,22.05
2023-01-29T06:13:42.081Z,22.04
2023-01-29T06:14:46.202Z,22.03
2023-01-29T06:15:50.368Z,22.07
2023-01-29T06:16:54.631Z,22.09
2023-01-29T06:17:58.773Z,22.06
2023-01-29T06:19:02.934Z,22.05
2023-01-29T06:20:07.075Z,22.03
2023-01-29T06:21:11.218Z,22.02
2023-01-29T06:22:15.366Z,22.02
2023-01-29T06:23:19.482Z,21.98
2023-01-29T06:24:23.668Z,21.99
2023-01-29T06:25:27.968Z,21.95
2023-01-29T06:26:32.123Z,21.9
2023-01-29T06:27:36.261Z,21.92
2023-01-29T06:28:40.424Z,21.89
2023-01-29T06:29:44.573Z,21.86
2023-01-29T06:30:48.807Z,21.83
2023-01-29T06:31:53.139Z,21.81
2023-01-29T06:32:57.605Z,21.78
2023-01-29T06:34:01.764Z,21.75
2023-01-29T06:35:05.923Z,21.72
2023-01-29T06:36:10.043Z,21.72
2023-01-29T06:37:14.180Z,21.68
2023-01-29T06:38:18.308Z,21.68
2023-01-29T06:39:22.710Z,21.66
2023-01-29T06:40:26.967Z,21.61
2023-01-29T06:41:31.116Z,21.61
2023-01-29T06:42:35.306Z,21.6
2023-01-29T06:43:39.483Z,21.56
2023-01-29T06:44:43.595Z,21.56
2023-01-29T06:45:47.753Z,21.53
2023-01-29T06:46:52.015Z,21.51
2023-01-29T06:47:56.120Z,21.5
2023-01-29T06:49:03.371Z,21.47
2023-01-29T06:50:07.500Z,21.47
2023-01-29T06:51:11.625Z,21.46
2023-01-29T06:52:15.787Z,21.43
2023-01-29T06:53:19.943Z,21.44
2023-01-29T06:54:24.075Z,21.4
2023-01-29T06:55:28.214Z,21.42
2023-01-29T06:56:32.388Z,21.38
2023-01-29T06:57:36.539Z,21.39
2023-01-29T06:58:40.692Z,21.35
2023-01-29T06:59:44.807Z,21.37
2023-01-29T07:00:48.920Z,21.36
2023-01-29T07:01:53.273Z,21.35
2023-01-29T07:02:57.511Z,21.31
2023-01-29T07:04:01.631Z,21.3
2023-01-29T07:05:05.759Z,21.29
2023-01-29T07:06:09.867Z,21.28
2023-01-29T07:07:14.010Z,21.29
2023-01-29T07:08:18.125Z,21.28
2023-01-29T07:09:22.241Z,21.27
2023-01-29T07:10:26.389Z,21.26
2023-01-29T07:11:30.509Z,21.26
2023-01-29T07:12:34.682Z,21.24
2023-01-29T07:13:38.810Z,21.23
2023-01-29T07:14:42.929Z,21.23
2023-01-29T07:15:47.046Z,21.24
2023-01-29T07:16:51.181Z,21.25
2023-01-29T07:17:55.311Z,21.27
2023-01-29T07:18:59.453Z,21.28
2023-01-29T07:20:03.601Z,21.34
2023-01-29T07:21:07.719Z,21.4
2023-01-29T07:22:11.928Z,21.42
2023-01-29T07:23:16.059Z,21.47
2023-01-29T07:24:20.252Z,21.5
2023-01-29T07:25:24.491Z,21.54
2023-01-29T07:26:28.633Z,21.56
2023-01-29T07:27:32.761Z,21.63
2023-01-29T07:28:36.921Z,21.64
2023-01-29T07:29:41.070Z,21.68
2023-01-29T07:30:45.193Z,21.68
2023-01-29T07:31:49.498Z,21.75
2023-01-29T07:32:53.930Z,21.75
2023-01-29T07:33:58.060Z,21.81
2023-01-29T07:35:02.202Z,21.79
2023-01-29T07:36:06.315Z,21.83
2023-01-29T07:37:10.422Z,21.82
2023-01-29T07:38:14.568Z,21.83
2023-01-29T07:39:18.695Z,21.85
2023-01-29T07:40:22.796Z,21.84
2023-01-29T07:41:26.921Z,21.84
2023-01-29T07:42:31.055Z,21.83
2023-01-29T07:43:35.200Z,21.81
2023-01-29T07:44:39.393Z,21.79
2023-01-29T07:45:43.659Z,21.77
2023-01-29T07:46:47.907Z,21.73
2023-01-29T07:47:52.030Z,21.75
2023-01-29T07:48:56.172Z,21.72
2023-01-29T07:50:00.303Z,21.67
2023-01-29T07:51:04.432Z,21.65
2023-01-29T07:52:08.552Z,21.67
2023-01-29T07:53:12.689Z,21.64
2023-01-29T07:54:16.797Z,21.42
2023-01-29T07:55:20.972Z,21.6
2023-01-29T07:56:25.134Z,21.59
2023-01-29T07:57:29.257Z,21.55
2023-01-29T07:58:35.622Z,21.55
2023-01-29T07:59:40.107Z,21.54
2023-01-29T08:00:44.241Z,21.52
2023-01-29T08:01:48.537Z,21.53
2023-01-29T08:02:52.702Z,21.51
2023-01-29T08:03:56.840Z,21.5
2023-01-29T08:05:00.951Z,21.48
2023-01-29T08:06:05.089Z,21.46
2023-01-29T08:07:09.212Z,21.43
2023-01-29T08:08:13.331Z,21.41
2023-01-29T08:09:17.481Z,21.42
2023-01-29T08:10:21.630Z,21.41
2023-01-29T08:11:25.790Z,21.4
2023-01-29T08:12:29.956Z,21.39
2023-01-29T08:13:34.097Z,21.38
2023-01-29T08:14:38.215Z,21.37
2023-01-29T08:15:42.369Z,21.35
2023-01-29T08:16:46.626Z,21.35
2023-01-29T08:25:08.547Z,21.28
2023-01-29T08:26:12.870Z,21.3
2023-01-29T08:27:17.010Z,21.29
2023-01-29T08:28:21.123Z,21.27
2023-01-29T08:29:25.267Z,21.25
2023-01-29T08:30:29.403Z,21.26
2023-01-29T08:31:33.691Z,21.26
2023-01-29T08:32:37.931Z,21.25
2023-01-29T08:33:42.074Z,21.21
2023-01-29T08:34:46.212Z,21.19
2023-01-29T08:35:50.337Z,21.21
2023-01-29T08:36:54.732Z,21.2
2023-01-29T08:37:58.874Z,21.19
2023-01-29T08:39:03.094Z,21.17
2023-01-29T08:40:07.235Z,21.17
2023-01-29T08:41:11.345Z,21.16
2023-01-29T08:42:15.489Z,21.16
2023-01-29T08:43:19.634Z,21.17
2023-01-29T08:44:23.761Z,21.16
2023-01-29T08:45:34.002Z,21.15
2023-01-29T08:46:38.374Z,21.14
2023-01-29T08:47:42.505Z,21.13
2023-01-29T08:48:46.630Z,21.11
2023-01-29T08:51:11.419Z,21.08
2023-01-29T08:52:15.592Z,21.09
2023-01-29T08:53:19.721Z,21.09
2023-01-29T08:54:23.845Z,21.07
2023-01-29T08:55:27.992Z,21.06
2023-01-29T08:56:32.167Z,21.07
2023-01-29T08:57:36.260Z,21.07
2023-01-29T08:58:40.373Z,21.06
2023-01-29T08:59:44.497Z,21.07
2023-01-29T09:00:48.620Z,21.07
2023-01-29T09:01:52.848Z,21.07
2023-01-29T09:02:57.069Z,21.06
2023-01-29T09:04:01.171Z,21.04
2023-01-29T09:05:05.291Z,21.04
2023-01-29T09:06:09.425Z,21.02
2023-01-29T09:07:13.566Z,21.01
2023-01-29T09:08:17.684Z,20.99
2023-01-29T09:09:21.832Z,20.99
2023-01-29T09:10:25.969Z,21
2023-01-29T09:11:30.140Z,20.97
2023-01-29T09:12:34.336Z,20.98
2023-01-29T09:13:38.480Z,20.95
2023-01-29T09:14:42.593Z,20.96
2023-01-29T09:15:46.709Z,20.96
2023-01-29T09:16:51.205Z,20.93
2023-01-29T09:17:56.099Z,20.93
2023-01-29T09:19:00.339Z,20.95
2023-01-29T09:20:04.461Z,20.95
2023-01-29T09:21:08.563Z,20.91
2023-01-29T09:22:12.678Z,20.94
2023-01-29T09:23:16.802Z,20.93
2023-01-29T09:24:20.926Z,20.92
2023-01-29T09:25:25.041Z,20.9
2023-01-29T09:26:29.183Z,20.91
2023-01-29T09:27:33.533Z,20.89
2023-01-29T09:28:37.667Z,20.88
2023-01-29T09:29:41.800Z,20.88
2023-01-29T09:30:46.001Z,20.87
2023-01-29T09:31:50.632Z,20.82
2023-01-29T09:32:55.372Z,20.81
2023-01-29T09:33:59.568Z,20.84
2023-01-29T09:35:03.677Z,20.82
2023-01-29T09:36:07.808Z,20.79
2023-01-29T09:37:11.936Z,20.8
2023-01-29T09:38:16.107Z,20.77
2023-01-29T09:39:20.228Z,20.8
2023-01-29T09:40:24.358Z,20.79
2023-01-29T09:41:28.518Z,20.76
2023-01-29T09:42:33.611Z,20.77
2023-01-29T09:43:39.291Z,20.75
2023-01-29T09:44:43.444Z,20.73
2023-01-29T09:45:47.567Z,20.74
2023-01-29T09:46:51.771Z,20.72
2023-01-29T09:47:55.958Z,20.74
2023-01-29T09:49:00.114Z,20.71
2023-01-29T09:50:04.276Z,20.68
2023-01-29T09:51:08.417Z,20.71
2023-01-29T09:52:12.538Z,20.68
2023-01-29T09:53:16.650Z,20.69
2023-01-29T09:54:20.831Z,20.65
2023-01-29T09:55:25.591Z,20.68
2023-01-29T09:56:29.863Z,20.68
2023-01-29T09:57:34.019Z,20.64
2023-01-29T09:58:38.147Z,20.63
2023-01-29T09:59:42.252Z,20.63
2023-01-29T10:00:46.460Z,20.62
2023-01-29T10:01:50.743Z,20.64
2023-01-29T10:02:55.270Z,20.62
2023-01-29T10:03:59.393Z,20.6
2023-01-29T10:05:03.514Z,20.62
2023-01-29T10:06:07.634Z,20.6
2023-01-29T10:07:11.749Z,20.58
2023-01-29T10:08:15.861Z,20.57
2023-01-29T10:09:19.976Z,20.54
2023-01-29T10:10:24.176Z,20.56
2023-01-29T10:11:28.507Z,20.56
2023-01-29T10:12:32.670Z,20.55
2023-01-29T10:13:36.811Z,20.55
2023-01-29T10:14:40.928Z,20.54
2023-01-29T10:15:45.048Z,20.56
2023-01-29T10:16:49.240Z,20.55
2023-01-29T10:17:53.468Z,20.54
2023-01-29T10:18:57.674Z,20.55
2023-01-29T10:20:01.963Z,20.51
2023-01-29T10:21:06.105Z,20.52
2023-01-29T10:22:10.244Z,20.52
2023-01-29T10:23:14.359Z,20.51
2023-01-29T10:24:18.481Z,20.47
2023-01-29T10:25:22.612Z,20.49
2023-01-29T10:26:26.734Z,20.49
2023-01-29T10:27:30.997Z,20.48
2023-01-29T10:28:35.146Z,20.44
2023-01-29T10:29:39.291Z,20.46
2023-01-29T10:30:43.508Z,20.43
2023-01-29T10:31:48.173Z,20.43
2023-01-29T10:32:52.778Z,20.44
2023-01-29T10:34:02.260Z,20.42
2023-01-29T10:35:06.886Z,20.42
2023-01-29T10:36:11.012Z,20.39
2023-01-29T10:37:15.181Z,20.37
2023-01-29T10:38:19.300Z,20.38
2023-01-29T10:39:23.431Z,20.38
2023-01-29T10:40:27.738Z,20.34
2023-01-29T10:41:31.865Z,20.39
2023-01-29T10:42:35.983Z,20.36
2023-01-29T10:43:40.124Z,20.38
2023-01-29T10:44:44.256Z,20.36
2023-01-29T10:45:48.405Z,20.36
2023-01-29T10:46:52.714Z,20.34
2023-01-29T10:47:56.909Z,20.33
2023-01-29T10:49:01.031Z,20.33
2023-01-29T10:50:05.135Z,20.37
2023-01-29T10:51:09.244Z,20.39
2023-01-29T10:52:13.373Z,20.44
2023-01-29T10:53:17.486Z,20.45
2023-01-29T10:54:21.575Z,20.48
2023-01-29T10:55:25.701Z,20.48
2023-01-29T10:56:29.799Z,20.5
2023-01-29T10:57:33.893Z,20.49
2023-01-29T10:58:38.001Z,20.5
2023-01-29T10:59:42.109Z,20.51
2023-01-29T11:00:46.224Z,20.49
2023-01-29T11:01:50.367Z,20.52
2023-01-29T11:02:54.888Z,20.49
2023-01-29T11:03:59.361Z,20.52
2023-01-29T11:05:03.577Z,20.52
2023-01-29T11:06:07.689Z,20.53
2023-01-29T11:07:11.787Z,20.51
2023-01-29T11:08:15.865Z,20.52
2023-01-29T11:09:20.002Z,20.51
2023-01-29T11:10:24.162Z,20.48
2023-01-29T11:11:28.301Z,20.49
2023-01-29T11:12:32.380Z,20.46
2023-01-29T11:13:36.552Z,20.46
2023-01-29T11:14:40.674Z,20.44
2023-01-29T11:15:44.769Z,20.42
2023-01-29T11:16:49.036Z,20.38
2023-01-29T11:17:53.266Z,20.14
2023-01-29T11:18:57.353Z,20.38
2023-01-29T11:20:01.523Z,20.37
2023-01-29T11:21:05.620Z,20.36
2023-01-29T11:22:09.711Z,20.36
2023-01-29T11:23:13.824Z,20.35
2023-01-29T11:24:17.945Z,20.34
2023-01-29T11:25:22.150Z,20.35
2023-01-29T11:26:26.265Z,20.31
2023-01-29T11:27:30.468Z,20.33
2023-01-29T11:28:34.583Z,20.3
2023-01-29T11:29:38.701Z,20.31
2023-01-29T11:30:42.884Z,20.34
2023-01-29T11:31:47.194Z,20.37
2023-01-29T11:32:51.508Z,20.38
2023-01-29T11:33:55.609Z,20.37
2023-01-29T11:34:59.824Z,20.37
2023-01-29T11:36:03.929Z,20.33
2023-01-29T11:37:08.044Z,20.35
2023-01-29T11:38:12.170Z,20.33
2023-01-29T11:39:16.365Z,20.34
2023-01-29T11:40:20.526Z,20.33
2023-01-29T11:41:24.658Z,20.29
2023-01-29T11:42:28.744Z,20.37
2023-01-29T11:43:33.039Z,20.41
2023-01-29T11:44:37.781Z,20.4
2023-01-29T11:45:41.889Z,20.43
2023-01-29T11:46:46.204Z,20.41
2023-01-29T11:47:50.650Z,20.43
2023-01-29T11:48:58.897Z,20.48
2023-01-29T11:50:23.215Z,20.51
2023-01-29T11:51:27.424Z,20.5
2023-01-29T11:52:31.642Z,20.54
2023-01-29T11:53:35.800Z,20.55
2023-01-29T11:54:39.945Z,20.59
2023-01-29T11:55:50.496Z,20.61
2023-01-29T11:56:54.966Z,20.62
2023-01-29T11:57:59.193Z,20.63
2023-01-29T11:59:03.788Z,20.63
2023-01-29T12:00:07.890Z,20.63
2023-01-29T12:01:12.277Z,20.6
2023-01-29T12:02:16.377Z,20.62
2023-01-29T12:03:20.488Z,20.59
2023-01-29T12:04:28.007Z,20.59
2023-01-29T12:05:32.142Z,20.62
2023-01-29T12:06:36.316Z,20.64
2023-01-29T12:07:40.418Z,20.66
2023-01-29T12:08:44.526Z,20.67
2023-01-29T12:09:48.647Z,20.68
2023-01-29T12:10:52.732Z,20.7
2023-01-29T12:11:56.840Z,20.72
2023-01-29T12:13:00.964Z,20.74
2023-01-29T12:14:05.076Z,20.76
2023-01-29T12:15:09.176Z,20.7
2023-01-29T12:16:13.347Z,20.79
2023-01-29T12:17:17.723Z,20.83
2023-01-29T12:18:21.817Z,20.86
2023-01-29T12:19:25.945Z,20.86
2023-01-29T12:20:30.215Z,20.88
2023-01-29T12:21:34.650Z,20.89
2023-01-29T12:22:38.821Z,20.95
2023-01-29T12:23:42.918Z,20.96
2023-01-29T12:24:47.047Z,20.99
2023-01-29T12:25:51.142Z,21.01
2023-01-29T12:26:55.235Z,21.01
2023-01-29T12:27:59.338Z,20.97
2023-01-29T12:29:03.475Z,20.95
2023-01-29T12:30:07.564Z,20.94
2023-01-29T12:31:11.680Z,20.95
2023-01-29T12:32:15.938Z,20.97
2023-01-29T12:33:20.041Z,20.94
2023-01-29T12:34:24.189Z,20.92
2023-01-29T12:35:28.317Z,20.9
2023-01-29T12:36:32.416Z,20.87
2023-01-29T12:37:36.517Z,20.84
2023-01-29T12:38:40.598Z,20.83
2023-01-29T12:39:44.686Z,20.82
2023-01-29T12:40:48.786Z,20.86
2023-01-29T12:41:52.914Z,20.88
2023-01-29T12:42:57.013Z,20.91
2023-01-29T12:44:01.167Z,20.93
2023-01-29T12:45:05.371Z,20.97
2023-01-29T12:46:09.511Z,20.98
2023-01-29T12:47:17.141Z,21.01
2023-01-29T12:48:21.284Z,21
2023-01-29T12:49:25.400Z,20.99
2023-01-29T12:50:29.528Z,21.09
2023-01-29T12:51:33.663Z,21.09
2023-01-29T12:52:37.794Z,21.12
2023-01-29T12:53:41.890Z,21.14
2023-01-29T12:54:46.079Z,21.15
2023-01-29T12:55:50.189Z,21.18
2023-01-29T12:56:54.299Z,21.2
2023-01-29T12:57:58.389Z,21.22
2023-01-29T12:59:02.509Z,21.18
2023-01-29T13:00:06.631Z,21.18
2023-01-29T13:01:10.858Z,21.19
2023-01-29T13:02:15.131Z,21.18
2023-01-29T13:03:19.336Z,21.12
2023-01-29T13:04:23.641Z,21.13
2023-01-29T13:05:27.746Z,21.11
2023-01-29T13:06:31.829Z,21.1
2023-01-29T13:07:35.907Z,21.1
2023-01-29T13:08:39.986Z,21.04
2023-01-29T13:09:44.081Z,21.06
2023-01-29T13:10:48.207Z,20.87
2023-01-29T13:11:52.283Z,21.05
2023-01-29T13:12:56.382Z,21.06
2023-01-29T13:14:00.473Z,21.08
2023-01-29T13:15:04.653Z,21.1
2023-01-29T13:16:08.795Z,21.11
2023-01-29T13:17:12.997Z,21.14
2023-01-29T13:18:17.094Z,21.17
2023-01-29T13:19:21.188Z,21.17
2023-01-29T13:20:25.308Z,21.23
2023-01-29T13:21:32.671Z,21.18
2023-01-29T13:22:36.777Z,21.21
2023-01-29T13:23:40.988Z,21.22
2023-01-29T13:24:52.555Z,21.21
2023-01-29T13:26:08.455Z,21.16
2023-01-29T13:27:15.171Z,21.18
2023-01-29T13:28:19.257Z,21.17
2023-01-29T13:29:23.471Z,21.15
2023-01-29T13:30:27.601Z,21.19
2023-01-29T13:31:31.846Z,21.16
2023-01-29T13:32:36.100Z,21.19
2023-01-29T13:33:40.183Z,21.21
2023-01-29T13:34:44.282Z,21.22
2023-01-29T13:35:48.402Z,21.19
2023-01-29T13:36:52.490Z,21.26
2023-01-29T13:37:56.578Z,21.25
2023-01-29T13:39:00.679Z,21.26
2023-01-29T13:40:04.886Z,21.28
2023-01-29T13:41:08.997Z,21.32
2023-01-29T13:42:13.080Z,21.3
2023-01-29T13:43:17.161Z,21.36
2023-01-29T13:44:21.294Z,21.36
2023-01-29T13:45:25.397Z,21.36
2023-01-29T13:46:29.505Z,21.35
2023-01-29T13:47:33.645Z,21.35
2023-01-29T13:48:37.752Z,21.36
2023-01-29T13:49:41.860Z,21.32
2023-01-29T13:50:46.005Z,21.3
2023-01-29T13:51:50.097Z,21.25
2023-01-29T13:52:54.217Z,21.27
2023-01-29T13:53:58.319Z,21.25
2023-01-29T13:55:02.482Z,21.2
2023-01-29T13:56:06.578Z,21.2
2023-01-29T13:57:10.650Z,21.19
2023-01-29T13:58:14.744Z,21.16
2023-01-29T13:59:18.859Z,21.2
2023-01-29T14:00:22.993Z,21.23